0VI1 weather

Brooklyn Airport
Manquin, Virginia, United States

Public forecast

Using degrees Fahrenheit for public forecast. Weather courtesy of forecast.io.

METAR (pilot weather report)

Closest report is New Kent County Airport, 11.2 nm (20.8 km) S. Retrieved UTC (0 seconds ago):

TAF (pilot weather forecast)

Closest forecast is Richmond International Airport, 15.1 nm (28.1 km) SW. Retrieved 2019/01/17 12:22 UTC (5 hours ago):

TAF KRIC 171120Z 1712/1812 00000KT P6SM BKN045 FM171400 05004KT P6SM BKN080 FM172200 13004KT P6SM OVC060 FM180200 16004KT 6SM -RA OVC060 FM180500 17005KT 6SM -RA OVC030 FM180700 20005KT P6SM OVC025